sensor_id;sensor_type;location;lat;lon;timestamp;temperature;humidity
3246;DHT22;1635;48.000;10.582;2022-12-07T00:01:41;20.60;47.60
3246;DHT22;1635;48.000;10.582;2022-12-07T00:04:11;20.60;47.70
3246;DHT22;1635;48.000;10.582;2022-12-07T00:06:41;20.60;48.00
3246;DHT22;1635;48.000;10.582;2022-12-07T00:09:13;20.70;47.50
3246;DHT22;1635;48.000;10.582;2022-12-07T00:11:41;20.60;47.40
3246;DHT22;1635;48.000;10.582;2022-12-07T00:14:12;20.60;47.20
3246;DHT22;1635;48.000;10.582;2022-12-07T00:16:39;20.60;47.60
3246;DHT22;1635;48.000;10.582;2022-12-07T00:19:06;20.50;47.50
3246;DHT22;1635;48.000;10.582;2022-12-07T00:21:37;20.60;47.50
3246;DHT22;1635;48.000;10.582;2022-12-07T00:24:05;20.60;47.90
3246;DHT22;1635;48.000;10.582;2022-12-07T00:26:34;20.70;47.90
3246;DHT22;1635;48.000;10.582;2022-12-07T00:29:06;20.50;47.40
3246;DHT22;1635;48.000;10.582;2022-12-07T00:31:35;20.60;47.60
3246;DHT22;1635;48.000;10.582;2022-12-07T00:34:06;20.60;47.40
3246;DHT22;1635;48.000;10.582;2022-12-07T00:36:33;20.60;47.10
3246;DHT22;1635;48.000;10.582;2022-12-07T00:39:00;20.60;47.50
3246;DHT22;1635;48.000;10.582;2022-12-07T00:41:29;20.60;47.70
3246;DHT22;1635;48.000;10.582;2022-12-07T00:43:56;20.60;47.80
3246;DHT22;1635;48.000;10.582;2022-12-07T00:46:23;20.60;47.20
3246;DHT22;1635;48.000;10.582;2022-12-07T00:48:51;20.60;47.10
3246;DHT22;1635;48.000;10.582;2022-12-07T00:51:21;20.60;47.00
3246;DHT22;1635;48.000;10.582;2022-12-07T00:53:48;20.60;47.30
3246;DHT22;1635;48.000;10.582;2022-12-07T00:56:17;20.60;47.30
3246;DHT22;1635;48.000;10.582;2022-12-07T00:58:53;20.50;47.10
3246;DHT22;1635;48.000;10.582;2022-12-07T01:01:20;20.60;47.50
3246;DHT22;1635;48.000;10.582;2022-12-07T01:03:47;20.60;47.60
3246;DHT22;1635;48.000;10.582;2022-12-07T01:06:19;20.60;47.50
3246;DHT22;1635;48.000;10.582;2022-12-07T01:08:46;20.50;47.50
3246;DHT22;1635;48.000;10.582;2022-12-07T01:11:15;20.60;47.50
3246;DHT22;1635;48.000;10.582;2022-12-07T01:13:43;20.60;47.40
3246;DHT22;1635;48.000;10.582;2022-12-07T01:16:13;20.60;47.10
3246;DHT22;1635;48.000;10.582;2022-12-07T01:18:40;20.60;47.40
3246;DHT22;1635;48.000;10.582;2022-12-07T01:23:40;20.50;47.20
3246;DHT22;1635;48.000;10.582;2022-12-07T01:26:11;20.60;47.60
3246;DHT22;1635;48.000;10.582;2022-12-07T01:28:38;20.60;47.50
3246;DHT22;1635;48.000;10.582;2022-12-07T01:31:12;20.50;47.40
3246;DHT22;1635;48.000;10.582;2022-12-07T01:33:43;20.60;47.20
3246;DHT22;1635;48.000;10.582;2022-12-07T01:36:19;20.60;47.10
3246;DHT22;1635;48.000;10.582;2022-12-07T01:38:47;20.60;47.20
3246;DHT22;1635;48.000;10.582;2022-12-07T01:41:15;20.50;47.20
3246;DHT22;1635;48.000;10.582;2022-12-07T01:46:54;20.50;47.40
3246;DHT22;1635;48.000;10.582;2022-12-07T01:51:54;20.60;47.00
3246;DHT22;1635;48.000;10.582;2022-12-07T01:54:24;20.60;47.30
3246;DHT22;1635;48.000;10.582;2022-12-07T01:56:54;20.50;47.10
3246;DHT22;1635;48.000;10.582;2022-12-07T01:59:23;20.60;47.10
3246;DHT22;1635;48.000;10.582;2022-12-07T02:01:52;20.50;46.60
3246;DHT22;1635;48.000;10.582;2022-12-07T02:04:19;20.50;47.60
3246;DHT22;1635;48.000;10.582;2022-12-07T02:06:46;20.50;47.00
3246;DHT22;1635;48.000;10.582;2022-12-07T02:09:14;20.60;46.40
3246;DHT22;1635;48.000;10.582;2022-12-07T02:11:41;20.50;47.30
3246;DHT22;1635;48.000;10.582;2022-12-07T02:14:08;20.60;46.90
3246;DHT22;1635;48.000;10.582;2022-12-07T02:29:08;20.50;47.30
3246;DHT22;1635;48.000;10.582;2022-12-07T02:31:43;20.50;46.70
3246;DHT22;1635;48.000;10.582;2022-12-07T02:34:40;20.50;47.00
3246;DHT22;1635;48.000;10.582;2022-12-07T02:37:36;20.50;46.90
3246;DHT22;1635;48.000;10.582;2022-12-07T02:42:42;20.50;47.30
3246;DHT22;1635;48.000;10.582;2022-12-07T02:45:11;20.50;47.00
3246;DHT22;1635;48.000;10.582;2022-12-07T02:47:40;20.60;46.90
3246;DHT22;1635;48.000;10.582;2022-12-07T02:50:08;20.50;46.90
3246;DHT22;1635;48.000;10.582;2022-12-07T02:52:36;20.50;46.90
3246;DHT22;1635;48.000;10.582;2022-12-07T02:55:03;20.60;46.80
3246;DHT22;1635;48.000;10.582;2022-12-07T03:01:38;20.50;47.00
3246;DHT22;1635;48.000;10.582;2022-12-07T03:04:52;20.50;47.20
3246;DHT22;1635;48.000;10.582;2022-12-07T03:10:32;20.40;47.10
3246;DHT22;1635;48.000;10.582;2022-12-07T03:13:38;20.50;46.70
3246;DHT22;1635;48.000;10.582;2022-12-07T03:16:14;20.50;47.00
3246;DHT22;1635;48.000;10.582;2022-12-07T03:19:00;20.50;47.20
3246;DHT22;1635;48.000;10.582;2022-12-07T03:21:36;20.50;46.80
3246;DHT22;1635;48.000;10.582;2022-12-07T03:24:09;20.50;46.80
3246;DHT22;1635;48.000;10.582;2022-12-07T03:26:41;20.40;46.80
3246;DHT22;1635;48.000;10.582;2022-12-07T03:29:17;20.50;46.60
3246;DHT22;1635;48.000;10.582;2022-12-07T03:31:47;20.50;46.80
3246;DHT22;1635;48.000;10.582;2022-12-07T03:34:31;20.60;47.00
3246;DHT22;1635;48.000;10.582;2022-12-07T03:37:20;20.50;46.80
3246;DHT22;1635;48.000;10.582;2022-12-07T03:40:14;20.40;47.20
3246;DHT22;1635;48.000;10.582;2022-12-07T03:42:42;20.40;47.00
3246;DHT22;1635;48.000;10.582;2022-12-07T03:45:10;20.40;46.80
3246;DHT22;1635;48.000;10.582;2022-12-07T03:53:39;20.40;46.60
3246;DHT22;1635;48.000;10.582;2022-12-07T03:56:08;20.50;46.70
3246;DHT22;1635;48.000;10.582;2022-12-07T03:58:37;20.60;46.80
3246;DHT22;1635;48.000;10.582;2022-12-07T04:01:05;20.50;46.50
3246;DHT22;1635;48.000;10.582;2022-12-07T04:03:32;20.40;47.10
3246;DHT22;1635;48.000;10.582;2022-12-07T04:05:59;20.50;46.50
3246;DHT22;1635;48.000;10.582;2022-12-07T04:08:26;20.40;46.80
3246;DHT22;1635;48.000;10.582;2022-12-07T04:10:53;20.40;46.60
3246;DHT22;1635;48.000;10.582;2022-12-07T04:13:19;20.40;46.80
3246;DHT22;1635;48.000;10.582;2022-12-07T04:15:46;20.50;46.50
3246;DHT22;1635;48.000;10.582;2022-12-07T04:18:12;20.40;46.70
3246;DHT22;1635;48.000;10.582;2022-12-07T04:20:39;20.40;46.50
3246;DHT22;1635;48.000;10.582;2022-12-07T04:23:06;20.50;46.80
3246;DHT22;1635;48.000;10.582;2022-12-07T04:25:33;20.40;46.50
3246;DHT22;1635;48.000;10.582;2022-12-07T04:28:00;20.50;46.70
3246;DHT22;1635;48.000;10.582;2022-12-07T04:30:28;20.40;46.50
3246;DHT22;1635;48.000;10.582;2022-12-07T04:32:55;20.40;46.60
3246;DHT22;1635;48.000;10.582;2022-12-07T04:35:22;20.50;46.30
3246;DHT22;1635;48.000;10.582;2022-12-07T04:37:49;20.40;46.20
3246;DHT22;1635;48.000;10.582;2022-12-07T04:40:15;20.40;46.90
3246;DHT22;1635;48.000;10.582;2022-12-07T04:42:43;20.50;46.60
3246;DHT22;1635;48.000;10.582;2022-12-07T04:45:09;20.50;46.50
3246;DHT22;1635;48.000;10.582;2022-12-07T04:47:36;20.40;46.60
3246;DHT22;1635;48.000;10.582;2022-12-07T04:50:03;20.50;46.60
3246;DHT22;1635;48.000;10.582;2022-12-07T04:52:31;20.40;46.70
3246;DHT22;1635;48.000;10.582;2022-12-07T04:54:57;20.40;46.50
3246;DHT22;1635;48.000;10.582;2022-12-07T04:57:24;20.50;47.20
3246;DHT22;1635;48.000;10.582;2022-12-07T04:59:51;20.40;46.70
3246;DHT22;1635;48.000;10.582;2022-12-07T05:02:17;20.40;46.50
3246;DHT22;1635;48.000;10.582;2022-12-07T05:04:45;20.50;46.70
3246;DHT22;1635;48.000;10.582;2022-12-07T05:07:12;20.40;46.60
3246;DHT22;1635;48.000;10.582;2022-12-07T05:09:38;20.40;46.50
3246;DHT22;1635;48.000;10.582;2022-12-07T05:12:06;20.40;46.40
3246;DHT22;1635;48.000;10.582;2022-12-07T05:14:31;20.50;46.90
3246;DHT22;1635;48.000;10.582;2022-12-07T05:16:58;20.40;46.80
3246;DHT22;1635;48.000;10.582;2022-12-07T05:19:24;20.50;47.20
3246;DHT22;1635;48.000;10.582;2022-12-07T05:21:53;20.50;46.60
3246;DHT22;1635;48.000;10.582;2022-12-07T05:24:20;20.40;46.20
3246;DHT22;1635;48.000;10.582;2022-12-07T05:26:46;20.40;46.60
3246;DHT22;1635;48.000;10.582;2022-12-07T05:29:15;20.40;46.30
3246;DHT22;1635;48.000;10.582;2022-12-07T05:31:43;20.40;46.50
3246;DHT22;1635;48.000;10.582;2022-12-07T05:34:11;20.40;46.20
3246;DHT22;1635;48.000;10.582;2022-12-07T05:36:38;20.40;46.60
3246;DHT22;1635;48.000;10.582;2022-12-07T05:39:05;20.40;47.00
3246;DHT22;1635;48.000;10.582;2022-12-07T05:41:32;20.40;46.50
3246;DHT22;1635;48.000;10.582;2022-12-07T05:44:17;20.40;46.90
3246;DHT22;1635;48.000;10.582;2022-12-07T05:46:44;20.50;46.30
3246;DHT22;1635;48.000;10.582;2022-12-07T05:49:11;20.40;46.60
3246;DHT22;1635;48.000;10.582;2022-12-07T05:51:38;20.40;46.50
3246;DHT22;1635;48.000;10.582;2022-12-07T05:54:05;20.40;46.20
3246;DHT22;1635;48.000;10.582;2022-12-07T05:56:31;20.50;46.70
3246;DHT22;1635;48.000;10.582;2022-12-07T05:58:58;20.40;46.50
3246;DHT22;1635;48.000;10.582;2022-12-07T06:01:44;20.50;46.40
3246;DHT22;1635;48.000;10.582;2022-12-07T06:04:10;20.10;38.40
3246;DHT22;1635;48.000;10.582;2022-12-07T06:06:37;19.70;38.10
3246;DHT22;1635;48.000;10.582;2022-12-07T06:09:05;19.50;37.10
3246;DHT22;1635;48.000;10.582;2022-12-07T06:11:32;19.30;37.30
3246;DHT22;1635;48.000;10.582;2022-12-07T06:14:17;19.00;37.00
3246;DHT22;1635;48.000;10.582;2022-12-07T06:16:43;19.00;38.10
3246;DHT22;1635;48.000;10.582;2022-12-07T06:19:10;19.00;37.90
3246;DHT22;1635;48.000;10.582;2022-12-07T06:21:36;19.10;38.80
3246;DHT22;1635;48.000;10.582;2022-12-07T06:24:04;19.10;39.40
3246;DHT22;1635;48.000;10.582;2022-12-07T06:26:31;19.20;40.10
3246;DHT22;1635;48.000;10.582;2022-12-07T06:28:58;19.40;40.10
3246;DHT22;1635;48.000;10.582;2022-12-07T06:31:25;19.50;40.60
3246;DHT22;1635;48.000;10.582;2022-12-07T06:34:00;19.60;40.50
3246;DHT22;1635;48.000;10.582;2022-12-07T06:36:28;19.60;41.40
3246;DHT22;1635;48.000;10.582;2022-12-07T06:38:55;19.70;41.80
3246;DHT22;1635;48.000;10.582;2022-12-07T06:41:22;19.80;41.80
3246;DHT22;1635;48.000;10.582;2022-12-07T06:43:49;19.80;42.00
3246;DHT22;1635;48.000;10.582;2022-12-07T06:46:16;19.80;41.70
3246;DHT22;1635;48.000;10.582;2022-12-07T06:48:43;19.80;42.00
3246;DHT22;1635;48.000;10.582;2022-12-07T06:51:10;19.90;42.30
3246;DHT22;1635;48.000;10.582;2022-12-07T06:53:37;19.90;42.30
3246;DHT22;1635;48.000;10.582;2022-12-07T06:56:05;19.90;42.40
3246;DHT22;1635;48.000;10.582;2022-12-07T06:58:32;19.90;42.50
3246;DHT22;1635;48.000;10.582;2022-12-07T07:00:59;20.00;42.60
3246;DHT22;1635;48.000;10.582;2022-12-07T07:03:25;20.00;42.50
3246;DHT22;1635;48.000;10.582;2022-12-07T07:05:52;20.00;42.60
3246;DHT22;1635;48.000;10.582;2022-12-07T07:08:19;20.10;42.60
3246;DHT22;1635;48.000;10.582;2022-12-07T07:10:46;20.10;42.70
3246;DHT22;1635;48.000;10.582;2022-12-07T07:13:13;20.00;43.00
3246;DHT22;1635;48.000;10.582;2022-12-07T07:15:39;20.10;43.10
3246;DHT22;1635;48.000;10.582;2022-12-07T07:18:07;20.10;42.50
3246;DHT22;1635;48.000;10.582;2022-12-07T07:20:34;20.10;43.30
3246;DHT22;1635;48.000;10.582;2022-12-07T07:23:01;20.10;43.40
3246;DHT22;1635;48.000;10.582;2022-12-07T07:25:28;20.20;43.50
3246;DHT22;1635;48.000;10.582;2022-12-07T07:27:55;20.20;43.10
3246;DHT22;1635;48.000;10.582;2022-12-07T07:30:22;20.20;43.60
3246;DHT22;1635;48.000;10.582;2022-12-07T07:32:48;20.20;43.20
3246;DHT22;1635;48.000;10.582;2022-12-07T07:35:16;20.20;43.10
3246;DHT22;1635;48.000;10.582;2022-12-07T07:37:43;20.20;43.50
3246;DHT22;1635;48.000;10.582;2022-12-07T07:40:10;20.30;43.60
3246;DHT22;1635;48.000;10.582;2022-12-07T07:42:37;20.30;43.50
3246;DHT22;1635;48.000;10.582;2022-12-07T07:45:04;20.30;43.60
3246;DHT22;1635;48.000;10.582;2022-12-07T07:47:31;20.30;43.50
3246;DHT22;1635;48.000;10.582;2022-12-07T07:49:58;20.30;43.60
3246;DHT22;1635;48.000;10.582;2022-12-07T07:52:25;20.30;43.50
3246;DHT22;1635;48.000;10.582;2022-12-07T07:54:52;20.40;43.30
3246;DHT22;1635;48.000;10.582;2022-12-07T07:57:19;20.40;43.40
3246;DHT22;1635;48.000;10.582;2022-12-07T07:59:47;20.40;43.50
3246;DHT22;1635;48.000;10.582;2022-12-07T08:02:19;20.40;43.40
3246;DHT22;1635;48.000;10.582;2022-12-07T08:04:46;20.40;43.70
3246;DHT22;1635;48.000;10.582;2022-12-07T08:07:14;20.40;43.60
3246;DHT22;1635;48.000;10.582;2022-12-07T08:09:41;20.30;43.40
3246;DHT22;1635;48.000;10.582;2022-12-07T08:12:08;20.50;43.60
3246;DHT22;1635;48.000;10.582;2022-12-07T08:14:34;20.40;43.80
3246;DHT22;1635;48.000;10.582;2022-12-07T08:17:01;20.40;43.70
3246;DHT22;1635;48.000;10.582;2022-12-07T08:19:28;20.40;43.60
3246;DHT22;1635;48.000;10.582;2022-12-07T08:21:55;20.40;43.50
3246;DHT22;1635;48.000;10.582;2022-12-07T08:24:23;20.50;43.80
3246;DHT22;1635;48.000;10.582;2022-12-07T08:26:51;20.50;43.60
3246;DHT22;1635;48.000;10.582;2022-12-07T08:29:19;20.40;43.80
3246;DHT22;1635;48.000;10.582;2022-12-07T08:31:46;20.40;43.50
3246;DHT22;1635;48.000;10.582;2022-12-07T08:34:14;20.40;43.80
3246;DHT22;1635;48.000;10.582;2022-12-07T08:36:41;20.50;43.70
3246;DHT22;1635;48.000;10.582;2022-12-07T08:39:08;20.40;43.60
3246;DHT22;1635;48.000;10.582;2022-12-07T08:41:36;20.40;43.30
3246;DHT22;1635;48.000;10.582;2022-12-07T08:44:03;20.50;43.80
3246;DHT22;1635;48.000;10.582;2022-12-07T08:46:49;20.40;43.50
3246;DHT22;1635;48.000;10.582;2022-12-07T08:49:26;20.40;44.00
3246;DHT22;1635;48.000;10.582;2022-12-07T08:51:55;20.50;44.10
3246;DHT22;1635;48.000;10.582;2022-12-07T08:54:22;20.50;43.80
3246;DHT22;1635;48.000;10.582;2022-12-07T08:56:50;20.40;43.90
3246;DHT22;1635;48.000;10.582;2022-12-07T08:59:20;20.40;43.60
3246;DHT22;1635;48.000;10.582;2022-12-07T09:01:47;20.50;44.10
3246;DHT22;1635;48.000;10.582;2022-12-07T09:04:14;20.40;43.50
3246;DHT22;1635;48.000;10.582;2022-12-07T09:06:42;20.40;43.50
3246;DHT22;1635;48.000;10.582;2022-12-07T09:09:10;20.40;43.50
3246;DHT22;1635;48.000;10.582;2022-12-07T09:11:38;20.50;43.90
3246;DHT22;1635;48.000;10.582;2022-12-07T09:14:05;20.40;43.50
3246;DHT22;1635;48.000;10.582;2022-12-07T09:16:32;20.50;43.90
3246;DHT22;1635;48.000;10.582;2022-12-07T09:18:59;20.40;43.30
3246;DHT22;1635;48.000;10.582;2022-12-07T09:21:28;20.50;43.30
3246;DHT22;1635;48.000;10.582;2022-12-07T09:23:55;20.40;43.60
3246;DHT22;1635;48.000;10.582;2022-12-07T09:26:22;20.40;43.60
3246;DHT22;1635;48.000;10.582;2022-12-07T09:28:49;20.40;43.80
3246;DHT22;1635;48.000;10.582;2022-12-07T09:31:15;20.40;43.80
3246;DHT22;1635;48.000;10.582;2022-12-07T09:33:42;20.50;43.60
3246;DHT22;1635;48.000;10.582;2022-12-07T09:36:09;20.50;43.60
3246;DHT22;1635;48.000;10.582;2022-12-07T09:38:36;20.50;43.80
3246;DHT22;1635;48.000;10.582;2022-12-07T09:41:05;20.40;43.80
3246;DHT22;1635;48.000;10.582;2022-12-07T09:43:35;20.50;43.60
3246;DHT22;1635;48.000;10.582;2022-12-07T09:46:03;20.50;43.80
3246;DHT22;1635;48.000;10.582;2022-12-07T09:48:37;20.50;43.90
3246;DHT22;1635;48.000;10.582;2022-12-07T09:51:25;20.40;43.40
3246;DHT22;1635;48.000;10.582;2022-12-07T09:53:54;20.40;43.30
3246;DHT22;1635;48.000;10.582;2022-12-07T09:56:22;20.50;43.50
3246;DHT22;1635;48.000;10.582;2022-12-07T09:58:49;20.50;43.30
3246;DHT22;1635;48.000;10.582;2022-12-07T10:01:20;20.50;43.80
3246;DHT22;1635;48.000;10.582;2022-12-07T10:03:52;20.40;43.80
3246;DHT22;1635;48.000;10.582;2022-12-07T10:06:19;20.40;43.90
3246;DHT22;1635;48.000;10.582;2022-12-07T10:08:47;20.50;44.10
3246;DHT22;1635;48.000;10.582;2022-12-07T10:11:14;20.50;44.00
3246;DHT22;1635;48.000;10.582;2022-12-07T10:13:48;20.50;43.90
3246;DHT22;1635;48.000;10.582;2022-12-07T10:18:51;20.50;43.70
3246;DHT22;1635;48.000;10.582;2022-12-07T10:21:25;20.40;44.00
3246;DHT22;1635;48.000;10.582;2022-12-07T10:24:14;20.40;44.10
3246;DHT22;1635;48.000;10.582;2022-12-07T10:26:52;20.50;43.80
3246;DHT22;1635;48.000;10.582;2022-12-07T10:29:32;20.40;43.90
3246;DHT22;1635;48.000;10.582;2022-12-07T10:34:52;20.40;43.80
3246;DHT22;1635;48.000;10.582;2022-12-07T10:37:41;20.50;43.80
3246;DHT22;1635;48.000;10.582;2022-12-07T10:43:17;20.40;43.80
3246;DHT22;1635;48.000;10.582;2022-12-07T10:51:45;20.40;43.60
3246;DHT22;1635;48.000;10.582;2022-12-07T10:54:41;20.40;43.90
3246;DHT22;1635;48.000;10.582;2022-12-07T10:57:31;20.50;44.10
3246;DHT22;1635;48.000;10.582;2022-12-07T11:00:37;20.40;43.90
3246;DHT22;1635;48.000;10.582;2022-12-07T11:03:25;20.40;43.90
3246;DHT22;1635;48.000;10.582;2022-12-07T11:09:26;20.40;43.70
3246;DHT22;1635;48.000;10.582;2022-12-07T11:12:38;20.40;43.90
3246;DHT22;1635;48.000;10.582;2022-12-07T11:15:19;20.50;44.00
3246;DHT22;1635;48.000;10.582;2022-12-07T11:23:53;20.40;43.90
3246;DHT22;1635;48.000;10.582;2022-12-07T11:26:42;20.50;43.90
3246;DHT22;1635;48.000;10.582;2022-12-07T11:35:20;20.40;43.80
3246;DHT22;1635;48.000;10.582;2022-12-07T11:37:53;20.40;43.80
3246;DHT22;1635;48.000;10.582;2022-12-07T11:40:30;20.50;43.90
3246;DHT22;1635;48.000;10.582;2022-12-07T11:45:47;20.50;44.00
3246;DHT22;1635;48.000;10.582;2022-12-07T11:48:38;20.40;43.50
3246;DHT22;1635;48.000;10.582;2022-12-07T11:51:09;20.40;43.80
3246;DHT22;1635;48.000;10.582;2022-12-07T11:54:12;20.50;43.70
3246;DHT22;1635;48.000;10.582;2022-12-07T11:56:41;20.40;43.70
3246;DHT22;1635;48.000;10.582;2022-12-07T11:59:19;20.50;43.70
3246;DHT22;1635;48.000;10.582;2022-12-07T12:02:11;20.40;44.10
3246;DHT22;1635;48.000;10.582;2022-12-07T12:05:16;20.50;44.10
3246;DHT22;1635;48.000;10.582;2022-12-07T12:08:31;20.50;43.90
3246;DHT22;1635;48.000;10.582;2022-12-07T12:14:15;20.50;43.90
3246;DHT22;1635;48.000;10.582;2022-12-07T12:17:52;20.50;43.80
3246;DHT22;1635;48.000;10.582;2022-12-07T12:23:22;20.50;44.00
3246;DHT22;1635;48.000;10.582;2022-12-07T12:25:59;20.50;44.00
3246;DHT22;1635;48.000;10.582;2022-12-07T12:31:39;20.30;43.60
3246;DHT22;1635;48.000;10.582;2022-12-07T12:34:31;20.40;44.20
3246;DHT22;1635;48.000;10.582;2022-12-07T12:36:58;20.40;44.10
3246;DHT22;1635;48.000;10.582;2022-12-07T12:39:26;20.40;43.90
3246;DHT22;1635;48.000;10.582;2022-12-07T12:41:57;20.40;43.90
3246;DHT22;1635;48.000;10.582;2022-12-07T12:47:02;20.40;43.40
3246;DHT22;1635;48.000;10.582;2022-12-07T12:49:39;20.40;43.80
3246;DHT22;1635;48.000;10.582;2022-12-07T12:57:36;20.30;43.60
3246;DHT22;1635;48.000;10.582;2022-12-07T13:00:23;20.40;44.30
3246;DHT22;1635;48.000;10.582;2022-12-07T13:02:58;20.40;43.70
3246;DHT22;1635;48.000;10.582;2022-12-07T13:05:28;20.40;44.00
3246;DHT22;1635;48.000;10.582;2022-12-07T13:08:02;20.40;44.40
3246;DHT22;1635;48.000;10.582;2022-12-07T13:10:40;20.50;43.80
3246;DHT22;1635;48.000;10.582;2022-12-07T13:15:52;20.40;43.70
3246;DHT22;1635;48.000;10.582;2022-12-07T13:26:35;20.40;43.70
3246;DHT22;1635;48.000;10.582;2022-12-07T13:29:13;20.40;44.00
3246;DHT22;1635;48.000;10.582;2022-12-07T13:31:43;20.40;43.90
3246;DHT22;1635;48.000;10.582;2022-12-07T13:34:34;20.40;43.80
3246;DHT22;1635;48.000;10.582;2022-12-07T13:37:10;20.40;43.90
3246;DHT22;1635;48.000;10.582;2022-12-07T13:39:55;20.40;44.00
3246;DHT22;1635;48.000;10.582;2022-12-07T13:42:32;20.50;43.80
3246;DHT22;1635;48.000;10.582;2022-12-07T13:45:21;20.40;43.80
3246;DHT22;1635;48.000;10.582;2022-12-07T13:47:57;20.40;44.00
3246;DHT22;1635;48.000;10.582;2022-12-07T13:50:30;20.50;43.70
3246;DHT22;1635;48.000;10.582;2022-12-07T13:52:59;20.40;44.10
3246;DHT22;1635;48.000;10.582;2022-12-07T13:55:30;20.50;43.80
3246;DHT22;1635;48.000;10.582;2022-12-07T13:57:57;20.40;43.70
3246;DHT22;1635;48.000;10.582;2022-12-07T14:00:28;20.50;43.60
3246;DHT22;1635;48.000;10.582;2022-12-07T14:03:04;20.40;44.00
3246;DHT22;1635;48.000;10.582;2022-12-07T14:05:33;20.50;44.10
3246;DHT22;1635;48.000;10.582;2022-12-07T14:08:21;20.50;43.70
3246;DHT22;1635;48.000;10.582;2022-12-07T14:16:25;20.40;43.90
3246;DHT22;1635;48.000;10.582;2022-12-07T14:18:56;20.40;43.90
3246;DHT22;1635;48.000;10.582;2022-12-07T14:21:26;20.30;43.90
3246;DHT22;1635;48.000;10.582;2022-12-07T14:26:36;20.50;43.90
3246;DHT22;1635;48.000;10.582;2022-12-07T14:29:30;20.40;43.80
3246;DHT22;1635;48.000;10.582;2022-12-07T14:34:28;20.40;44.10
3246;DHT22;1635;48.000;10.582;2022-12-07T14:36:55;20.50;43.40
3246;DHT22;1635;48.000;10.582;2022-12-07T14:39:22;20.40;43.80
3246;DHT22;1635;48.000;10.582;2022-12-07T14:41:49;20.40;44.00
3246;DHT22;1635;48.000;10.582;2022-12-07T14:44:20;20.50;44.00
3246;DHT22;1635;48.000;10.582;2022-12-07T14:46:49;20.40;44.40
3246;DHT22;1635;48.000;10.582;2022-12-07T14:49:16;20.40;43.90
3246;DHT22;1635;48.000;10.582;2022-12-07T14:51:45;20.40;43.80
3246;DHT22;1635;48.000;10.582;2022-12-07T14:54:20;20.40;44.00
3246;DHT22;1635;48.000;10.582;2022-12-07T14:56:47;20.40;43.90
3246;DHT22;1635;48.000;10.582;2022-12-07T14:59:17;20.40;44.20
3246;DHT22;1635;48.000;10.582;2022-12-07T15:01:45;20.40;44.00
3246;DHT22;1635;48.000;10.582;2022-12-07T15:04:12;20.40;44.20
3246;DHT22;1635;48.000;10.582;2022-12-07T15:06:39;20.40;44.50
3246;DHT22;1635;48.000;10.582;2022-12-07T15:09:06;20.40;44.00
3246;DHT22;1635;48.000;10.582;2022-12-07T15:11:33;20.30;43.90
3246;DHT22;1635;48.000;10.582;2022-12-07T15:14:00;20.40;43.60
3246;DHT22;1635;48.000;10.582;2022-12-07T15:16:39;20.40;43.60
3246;DHT22;1635;48.000;10.582;2022-12-07T15:19:18;20.40;44.00
3246;DHT22;1635;48.000;10.582;2022-12-07T15:21:46;20.40;43.80
3246;DHT22;1635;48.000;10.582;2022-12-07T15:24:13;20.30;43.90
3246;DHT22;1635;48.000;10.582;2022-12-07T15:26:40;20.40;44.30
3246;DHT22;1635;48.000;10.582;2022-12-07T15:29:08;20.40;44.40
3246;DHT22;1635;48.000;10.582;2022-12-07T15:31:35;20.30;44.20
3246;DHT22;1635;48.000;10.582;2022-12-07T15:34:03;20.30;44.00
3246;DHT22;1635;48.000;10.582;2022-12-07T15:36:31;20.40;43.60
3246;DHT22;1635;48.000;10.582;2022-12-07T15:38:59;20.40;44.50
3246;DHT22;1635;48.000;10.582;2022-12-07T15:41:29;20.40;44.00
3246;DHT22;1635;48.000;10.582;2022-12-07T15:43:56;20.40;44.30
3246;DHT22;1635;48.000;10.582;2022-12-07T15:46:41;20.40;43.90
3246;DHT22;1635;48.000;10.582;2022-12-07T15:49:17;20.40;44.20
3246;DHT22;1635;48.000;10.582;2022-12-07T15:51:45;20.40;43.90
3246;DHT22;1635;48.000;10.582;2022-12-07T15:54:19;20.30;43.90
3246;DHT22;1635;48.000;10.582;2022-12-07T15:56:46;20.40;43.70
3246;DHT22;1635;48.000;10.582;2022-12-07T15:59:13;20.30;43.80
3246;DHT22;1635;48.000;10.582;2022-12-07T16:01:40;20.30;44.00
3246;DHT22;1635;48.000;10.582;2022-12-07T16:04:06;20.30;44.30
3246;DHT22;1635;48.000;10.582;2022-12-07T16:06:33;20.30;44.00
3246;DHT22;1635;48.000;10.582;2022-12-07T16:09:00;20.40;44.30
3246;DHT22;1635;48.000;10.582;2022-12-07T16:11:29;20.40;43.90
3246;DHT22;1635;48.000;10.582;2022-12-07T16:13:57;20.40;44.20
3246;DHT22;1635;48.000;10.582;2022-12-07T16:16:23;20.30;43.90
3246;DHT22;1635;48.000;10.582;2022-12-07T16:18:51;20.30;44.10
3246;DHT22;1635;48.000;10.582;2022-12-07T16:21:19;20.40;44.00
3246;DHT22;1635;48.000;10.582;2022-12-07T16:23:46;20.40;44.20
3246;DHT22;1635;48.000;10.582;2022-12-07T16:26:18;20.30;44.00
3246;DHT22;1635;48.000;10.582;2022-12-07T16:28:49;20.30;43.80
3246;DHT22;1635;48.000;10.582;2022-12-07T16:31:19;20.30;44.60
3246;DHT22;1635;48.000;10.582;2022-12-07T16:33:47;20.40;44.20
3246;DHT22;1635;48.000;10.582;2022-12-07T16:36:15;20.30;44.30
3246;DHT22;1635;48.000;10.582;2022-12-07T16:38:44;20.30;44.30
3246;DHT22;1635;48.000;10.582;2022-12-07T16:41:11;20.30;43.90
3246;DHT22;1635;48.000;10.582;2022-12-07T16:43:38;20.30;44.20
3246;DHT22;1635;48.000;10.582;2022-12-07T16:46:05;20.40;44.00
3246;DHT22;1635;48.000;10.582;2022-12-07T16:48:36;20.40;43.70
3246;DHT22;1635;48.000;10.582;2022-12-07T16:51:05;20.40;44.00
3246;DHT22;1635;48.000;10.582;2022-12-07T16:53:32;20.40;44.00
3246;DHT22;1635;48.000;10.582;2022-12-07T16:55:59;20.30;44.50
3246;DHT22;1635;48.000;10.582;2022-12-07T16:58:30;20.30;44.20
3246;DHT22;1635;48.000;10.582;2022-12-07T17:00:57;20.20;44.10
3246;DHT22;1635;48.000;10.582;2022-12-07T17:03:24;20.30;44.00
3246;DHT22;1635;48.000;10.582;2022-12-07T17:05:50;20.30;44.00
3246;DHT22;1635;48.000;10.582;2022-12-07T17:08:18;20.30;44.40
3246;DHT22;1635;48.000;10.582;2022-12-07T17:10:45;20.40;44.00
3246;DHT22;1635;48.000;10.582;2022-12-07T17:13:12;20.30;44.10
3246;DHT22;1635;48.000;10.582;2022-12-07T17:16:03;20.30;43.80
3246;DHT22;1635;48.000;10.582;2022-12-07T17:18:33;20.40;44.20
3246;DHT22;1635;48.000;10.582;2022-12-07T17:21:08;20.30;44.00
3246;DHT22;1635;48.000;10.582;2022-12-07T17:23:36;20.40;44.10
3246;DHT22;1635;48.000;10.582;2022-12-07T17:26:13;20.40;44.70
3246;DHT22;1635;48.000;10.582;2022-12-07T17:28:41;20.30;44.30
3246;DHT22;1635;48.000;10.582;2022-12-07T17:31:13;20.40;44.20
3246;DHT22;1635;48.000;10.582;2022-12-07T17:33:40;20.40;44.20
3246;DHT22;1635;48.000;10.582;2022-12-07T17:36:24;20.30;44.40
3246;DHT22;1635;48.000;10.582;2022-12-07T17:38:53;20.30;43.70
3246;DHT22;1635;48.000;10.582;2022-12-07T17:41:27;20.30;44.10
3246;DHT22;1635;48.000;10.582;2022-12-07T17:44:15;20.30;44.00
3246;DHT22;1635;48.000;10.582;2022-12-07T17:46:43;20.30;43.80
3246;DHT22;1635;48.000;10.582;2022-12-07T17:49:10;20.30;44.60
3246;DHT22;1635;48.000;10.582;2022-12-07T17:51:38;20.30;44.20
3246;DHT22;1635;48.000;10.582;2022-12-07T17:54:23;20.30;44.10
3246;DHT22;1635;48.000;10.582;2022-12-07T17:56:50;20.30;44.40
3246;DHT22;1635;48.000;10.582;2022-12-07T17:59:17;20.40;44.40